Suipacha, Argentina
Current Conditions -  °F | °C
As of 9:00 PM on Sunday 23 Nov 2014 (Local Time) from SAEZ Reporting Station
Clear Clear  
Wind Chill: 79°   Ceiling: Unl
Heat Index: 79°   Visibility: 6mi
Dew Point: 54°   Wind: 12mph
Humidity: 42%   Direction: 20°NNE
Pressure: 29.71"   Gusts: NA
Location:  34.75°S, 59.68°W
Report Text: SAEZ 240000Z 02010KT CAVOK 26/12 Q1006
Loading
Personal Weather Stations






























Interactive Weather Map New forecast layout! Learn more

10-Day Weather Forecast

Advertisements
Track Severe Weather on mobile